Time;durP1;ratioP1;P1;durP2;ratioP2;P2;SDS_P1;SDS_P2;PMS_P1;PMS_P2;Temp;Humidity;BMP_temperature;BMP_pressure;BME280_temperature;BME280_humidity;BME280_pressure;Samples;Min_cycle;Max_cycle;Signal;HPM_P1;HPM_P2
2021/09/28 00:01:33;;;;;;;14.10;8.50;;;;;;;12.90;80.90;98976.50;236110;1197;24040;-73
2021/09/28 00:06:36;;;;;;;15.40;8.80;;;;;;;12.93;81.22;98981.16;236333;1190;24049;-73
2021/09/28 00:11:43;;;;;;;14.70;9.70;;;;;;;12.99;81.37;98986.58;236736;1196;24040;-75
2021/09/28 00:16:48;;;;;;;14.00;8.60;;;;;;;13.00;81.34;98983.50;236134;1196;24105;-75
2021/09/28 00:21:54;;;;;;;11.10;8.50;;;;;;;13.05;81.26;98989.17;236088;1197;22430;-75
2021/09/28 00:27:07;;;;;;;13.80;8.60;;;;;;;13.00;80.83;98993.39;236425;1196;22427;-74
2021/09/28 00:32:31;;;;;;;16.90;9.70;;;;;;;12.88;80.67;98999.92;236898;1196;23837;-73
2021/09/28 00:37:34;;;;;;;12.20;8.60;;;;;;;12.81;80.97;99004.98;236623;1196;22493;-75
2021/09/28 00:42:37;;;;;;;14.10;8.80;;;;;;;12.79;81.12;99006.06;236194;1196;25192;-74
2021/09/28 00:47:39;;;;;;;14.30;8.00;;;;;;;12.80;81.27;99002.27;236109;1198;24075;-75
2021/09/28 00:52:46;;;;;;;13.00;9.20;;;;;;;12.87;81.71;98993.27;236373;1197;24047;-72
2021/09/28 00:57:49;;;;;;;13.20;9.50;;;;;;;12.93;81.72;98988.75;236109;1188;24043;-73
2021/09/28 01:02:56;;;;;;;15.70;8.60;;;;;;;12.90;81.57;98989.89;236096;1194;24129;-73
2021/09/28 01:08:00;;;;;;;12.90;8.30;;;;;;;12.90;81.61;98989.98;236059;1197;25322;-73
2021/09/28 01:13:03;;;;;;;10.90;7.50;;;;;;;12.91;81.60;98993.78;236753;1196;24071;-72
2021/09/28 01:18:06;;;;;;;13.30;8.00;;;;;;;12.91;81.55;98995.08;236602;1196;24040;-74
2021/09/28 01:23:09;;;;;;;13.90;8.40;;;;;;;12.86;81.32;99003.52;236239;1196;25206;-74
2021/09/28 01:28:11;;;;;;;10.40;6.90;;;;;;;12.84;81.58;99000.10;236557;1196;24573;-73
2021/09/28 01:33:15;;;;;;;11.20;7.00;;;;;;;12.81;81.31;98999.02;236820;1194;24090;-73
2021/09/28 01:38:18;;;;;;;12.10;8.00;;;;;;;12.77;81.28;98994.10;236795;1196;22493;-74
2021/09/28 01:43:21;;;;;;;12.40;7.90;;;;;;;12.73;81.34;98997.08;236108;1197;25194;-74
2021/09/28 01:48:33;;;;;;;10.70;6.70;;;;;;;12.64;81.10;98998.90;236264;1190;24075;-72
2021/09/28 01:53:36;;;;;;;10.00;6.40;;;;;;;12.54;80.92;99001.08;236584;1196;22497;-74
2021/09/28 01:58:42;;;;;;;11.70;6.30;;;;;;;12.42;80.80;98993.74;236136;1190;24175;-74
2021/09/28 02:03:58;;;;;;;12.90;7.20;;;;;;;12.30;80.71;99003.39;236198;1183;24075;-73
2021/09/28 02:09:18;;;;;;;14.70;6.60;;;;;;;12.17;80.80;99001.24;236283;1190;24085;-74
2021/09/28 02:14:31;;;;;;;9.50;6.20;;;;;;;12.07;80.89;99002.10;236314;1190;24056;-72
2021/09/28 02:19:34;;;;;;;12.30;6.80;;;;;;;12.01;81.09;99006.75;236159;1198;24420;-72
2021/09/28 02:24:36;;;;;;;11.20;6.60;;;;;;;11.99;81.38;99011.77;236243;1190;24487;-74
2021/09/28 02:29:39;;;;;;;11.00;7.60;;;;;;;11.94;81.44;99007.88;236332;1197;25197;-73
2021/09/28 02:34:47;;;;;;;10.20;6.30;;;;;;;11.88;81.52;99002.58;236187;1191;26165;-74
2021/09/28 02:40:03;;;;;;;;;;;;;;;11.81;81.50;99000.73;236091;1190;25203;-74
2021/09/28 02:45:06;;;;;;;11.50;7.20;;;;;;;11.75;81.75;99005.61;236398;1180;22415;-72
2021/09/28 02:50:11;;;;;;;10.10;7.10;;;;;;;11.72;81.85;99006.64;236722;1196;22497;-72
2021/09/28 02:55:14;;;;;;;11.10;6.40;;;;;;;11.71;81.94;99000.66;236263;1197;22481;-72
2021/09/28 03:00:17;;;;;;;11.10;6.10;;;;;;;11.68;81.88;98998.51;236260;1197;22428;-74
2021/09/28 03:05:19;;;;;;;10.10;5.80;;;;;;;11.65;81.87;98997.27;236267;1182;24088;-73
2021/09/28 03:10:22;;;;;;;9.30;6.70;;;;;;;11.64;81.80;99001.19;236794;1196;23988;-75
2021/09/28 03:15:26;;;;;;;10.40;5.50;;;;;;;11.64;81.98;99006.09;236866;1196;25292;-75
2021/09/28 03:20:29;;;;;;;9.60;5.10;;;;;;;11.64;81.91;99012.67;236550;1196;24081;-73
2021/09/28 03:25:32;;;;;;;10.70;5.40;;;;;;;11.64;81.99;99013.23;236466;1193;24082;-75
2021/09/28 03:30:37;;;;;;;7.00;5.70;;;;;;;11.64;81.87;99010.94;236279;1198;25310;-74
2021/09/28 03:35:40;;;;;;;7.20;5.10;;;;;;;11.63;81.82;99007.75;236626;1174;22545;-74
2021/09/28 03:40:52;;;;;;;7.10;4.70;;;;;;;11.60;81.67;99006.99;236446;1190;22562;-74
2021/09/28 03:46:16;;;;;;;8.20;5.70;;;;;;;11.55;81.72;99004.31;236089;1198;25291;-72
2021/09/28 03:51:18;;;;;;;6.60;5.00;;;;;;;11.49;81.81;99009.29;235959;1198;25212;-73
2021/09/28 03:56:22;;;;;;;8.80;4.90;;;;;;;11.44;81.79;99010.16;236151;1197;24057;-73
2021/09/28 04:01:24;;;;;;;10.20;5.10;;;;;;;11.43;81.73;99014.50;236279;1190;24762;-75
2021/09/28 04:06:28;;;;;;;7.90;5.60;;;;;;;11.43;81.89;99018.84;236328;1196;24130;-73
2021/09/28 04:11:32;;;;;;;7.20;4.70;;;;;;;11.42;81.96;99028.41;237008;1190;25213;-73
2021/09/28 04:16:36;;;;;;;9.50;5.30;;;;;;;11.37;81.69;99032.02;236635;1197;24100;-75
2021/09/28 04:21:44;;;;;;;7.30;4.40;;;;;;;11.33;81.73;99030.08;236399;1197;24216;-73
2021/09/28 04:26:48;;;;;;;7.70;4.90;;;;;;;11.33;81.90;99031.63;236488;1190;22471;-72
2021/09/28 04:31:51;;;;;;;7.10;4.60;;;;;;;11.33;81.83;99038.66;236134;1197;25011;-71
2021/09/28 04:36:54;;;;;;;7.40;4.70;;;;;;;11.36;82.21;99036.42;236245;1190;22633;-74
2021/09/28 04:41:56;;;;;;;7.60;4.30;;;;;;;11.41;82.20;99031.75;236310;1194;24155;-74
2021/09/28 04:46:59;;;;;;;8.90;4.90;;;;;;;11.40;81.80;99033.21;236314;1196;24055;-74
2021/09/28 04:52:03;;;;;;;8.20;4.60;;;;;;;11.34;81.76;99038.75;236046;1197;26001;-73
2021/09/28 04:57:05;;;;;;;8.30;4.70;;;;;;;11.34;81.91;99047.40;236105;1198;25095;-74
2021/09/28 05:02:08;;;;;;;7.40;4.80;;;;;;;11.35;81.91;99051.04;236101;1198;24180;-75
2021/09/28 05:07:10;;;;;;;8.40;4.50;;;;;;;11.39;82.06;99054.95;236257;1193;24087;-74
2021/09/28 05:12:13;;;;;;;7.90;4.70;;;;;;;11.47;82.22;99064.19;236634;1174;24032;-73
2021/09/28 05:17:31;;;;;;;9.40;5.60;;;;;;;11.58;82.22;99071.02;237012;1196;22419;-75
2021/09/28 05:22:47;;;;;;;8.00;4.80;;;;;;;11.65;81.85;99073.91;236938;1191;22435;-74
2021/09/28 05:27:59;;;;;;;8.70;4.70;;;;;;;11.69;81.91;99086.51;235987;1197;24090;-74
2021/09/28 05:33:05;;;;;;;7.30;4.30;;;;;;;11.75;81.69;99090.58;236390;1197;22622;-74
2021/09/28 05:38:08;;;;;;;8.40;5.20;;;;;;;11.82;81.62;99086.50;236358;1190;24221;-74
2021/09/28 05:43:11;;;;;;;9.30;4.70;;;;;;;11.91;81.70;99094.13;236556;1190;24043;-72
2021/09/28 05:48:14;;;;;;;8.40;4.20;;;;;;;11.95;81.46;99097.95;236864;1197;22497;-72
2021/09/28 05:53:17;;;;;;;5.10;3.80;;;;;;;12.00;81.11;99099.02;236620;1196;24997;-73
2021/09/28 05:58:19;;;;;;;5.70;4.50;;;;;;;12.07;80.99;99104.78;236290;1197;22565;-72
2021/09/28 06:03:22;;;;;;;7.70;4.90;;;;;;;12.15;80.84;99108.33;236480;1196;22638;-71
2021/09/28 06:08:25;;;;;;;7.20;4.50;;;;;;;12.25;80.85;99115.42;236992;1190;24014;-74
2021/09/28 06:13:27;;;;;;;5.50;4.20;;;;;;;12.29;80.43;99116.98;236702;1197;22464;-73
2021/09/28 06:18:37;;;;;;;7.00;4.90;;;;;;;12.36;80.26;99126.33;237288;1196;25221;-73
2021/09/28 06:23:40;;;;;;;7.10;4.10;;;;;;;12.45;80.16;99132.13;236596;1196;22513;-73
2021/09/28 06:28:42;;;;;;;5.70;4.20;;;;;;;12.56;80.02;99141.80;236519;1190;23764;-71
2021/09/28 06:33:45;;;;;;;9.00;4.60;;;;;;;12.65;79.69;99146.23;236691;1190;24024;-71
2021/09/28 06:38:48;;;;;;;7.30;4.70;;;;;;;12.72;79.60;99153.25;236822;1190;24047;-71
2021/09/28 06:43:51;;;;;;;7.20;3.80;;;;;;;12.81;79.41;99154.95;236536;1197;22454;-71
2021/09/28 06:48:54;;;;;;;7.20;4.10;;;;;;;12.88;79.12;99152.02;236735;1190;22455;-73
2021/09/28 06:53:56;;;;;;;7.50;4.80;;;;;;;12.91;78.88;99150.17;237027;1190;24014;-73
2021/09/28 06:58:59;;;;;;;9.50;4.30;;;;;;;12.93;78.65;99152.94;236970;1196;22549;-73
2021/09/28 07:04:02;;;;;;;9.50;4.50;;;;;;;12.96;78.69;99154.70;236896;1190;24094;-75
2021/09/28 07:09:07;;;;;;;6.50;4.80;;;;;;;13.05;78.50;99160.00;236598;1190;22491;-74
2021/09/28 07:14:11;;;;;;;5.90;4.30;;;;;;;13.14;78.42;99162.59;236736;1182;25191;-72
2021/09/28 07:19:16;;;;;;;7.30;4.30;;;;;;;13.25;78.16;99166.15;236676;1190;25197;-75
2021/09/28 07:24:19;;;;;;;5.90;4.00;;;;;;;13.37;77.97;99160.86;236647;1190;24119;-75
2021/09/28 07:29:22;;;;;;;4.60;3.90;;;;;;;13.53;77.89;99157.87;236833;1190;25311;-75
2021/09/28 07:34:24;;;;;;;5.30;3.90;;;;;;;13.67;77.33;99162.17;236352;1190;22449;-74
2021/09/28 07:39:28;;;;;;;5.30;3.60;;;;;;;13.85;77.36;99164.21;236390;1190;22496;-75
2021/09/28 07:44:37;;;;;;;4.70;3.90;;;;;;;14.04;77.07;99162.35;236856;1196;25193;-73
2021/09/28 07:49:57;;;;;;;6.30;4.50;;;;;;;14.27;76.87;99170.34;237238;1190;22551;-71
2021/09/28 07:55:01;;;;;;;6.70;4.70;;;;;;;14.46;76.63;99175.30;237260;1190;22447;-73
2021/09/28 08:00:09;;;;;;;7.60;4.40;;;;;;;14.66;76.08;99175.95;237061;1190;25033;-72
2021/09/28 08:05:16;;;;;;;6.50;4.90;;;;;;;14.81;75.56;99177.35;237041;1196;24198;-71
2021/09/28 08:10:18;;;;;;;7.70;4.50;;;;;;;14.96;75.42;99181.41;237038;1191;22394;-71
2021/09/28 08:15:31;;;;;;;6.60;5.30;;;;;;;15.17;75.32;99185.56;236983;1190;23974;-72
2021/09/28 08:20:49;;;;;;;8.20;6.00;;;;;;;15.34;74.78;99189.79;237103;1190;26251;-74
2021/09/28 08:31:09;;;;;;;11.00;5.80;;;;;;;15.66;74.04;99196.45;236621;1190;22600;-73
2021/09/28 08:36:11;;;;;;;9.10;6.40;;;;;;;15.85;73.78;99199.71;236564;1196;24127;-72
2021/09/28 08:41:15;;;;;;;8.90;7.20;;;;;;;15.98;73.11;99202.63;236610;1196;24205;-73
2021/09/28 08:46:19;;;;;;;10.90;7.70;;;;;;;16.01;72.74;99207.18;236741;1190;25451;-73
2021/09/28 08:51:22;;;;;;;9.70;7.90;;;;;;;16.15;72.52;99208.27;236632;1192;22549;-73
2021/09/28 08:56:25;;;;;;;11.70;8.40;;;;;;;16.29;72.53;99214.80;236615;1190;22441;-71
2021/09/28 09:01:29;;;;;;;8.00;6.30;;;;;;;16.55;72.39;99212.71;237147;1183;22486;-73
2021/09/28 09:06:34;;;;;;;9.60;6.30;;;;;;;16.71;71.75;99212.68;236678;1196;22443;-73
2021/09/28 09:11:39;;;;;;;8.10;5.40;;;;;;;16.85;71.13;99215.30;236759;1190;22418;-73
2021/09/28 09:16:46;;;;;;;6.90;4.60;;;;;;;16.90;70.40;99214.34;236853;1190;24104;-73
2021/09/28 09:21:54;;;;;;;5.90;4.60;;;;;;;16.98;70.11;99218.21;236837;1190;25716;-73
2021/09/28 09:26:57;;;;;;;8.50;4.80;;;;;;;17.15;69.96;99221.94;236696;1190;25201;-74
2021/09/28 09:32:14;;;;;;;7.50;5.10;;;;;;;17.42;70.05;99224.09;236650;1190;24043;-73
2021/09/28 09:37:17;;;;;;;8.90;5.30;;;;;;;17.70;69.32;99223.45;236478;1192;24090;-74
2021/09/28 09:42:23;;;;;;;7.60;4.80;;;;;;;17.83;68.43;99227.16;236843;1190;24053;-75
2021/09/28 09:47:37;;;;;;;9.60;4.90;;;;;;;17.97;68.00;99226.80;237107;1190;23982;-73
2021/09/28 09:53:04;;;;;;;6.60;4.50;;;;;;;18.13;67.64;99229.59;236680;1190;23970;-74
2021/09/28 09:58:08;;;;;;;6.60;4.10;;;;;;;18.20;66.91;99228.19;236865;1190;24054;-75
2021/09/28 10:03:25;;;;;;;8.40;4.70;;;;;;;18.20;66.69;99233.21;236723;1198;22893;-75
2021/09/28 10:08:50;;;;;;;6.40;4.80;;;;;;;18.31;66.56;99232.71;237074;1190;22453;-75
2021/09/28 10:13:56;;;;;;;7.20;4.80;;;;;;;18.41;66.37;99226.58;236989;1190;22442;-73
2021/09/28 10:19:00;;;;;;;7.30;4.50;;;;;;;18.52;66.27;99232.20;237570;1195;22510;-75
2021/09/28 10:24:33;;;;;;;8.20;4.90;;;;;;;18.74;65.83;99228.09;236789;1196;25415;-74
2021/09/28 10:29:43;;;;;;;7.70;4.80;;;;;;;18.91;65.37;99227.09;237160;1196;24055;-74
2021/09/28 10:35:10;;;;;;;7.90;4.60;;;;;;;18.97;65.00;99227.33;237210;1197;22798;-73
2021/09/28 10:40:14;;;;;;;7.80;4.50;;;;;;;19.10;64.93;99227.56;238622;1190;25482;-74
2021/09/28 10:45:41;;;;;;;8.30;6.20;;;;;;;19.19;64.08;99230.86;238026;1191;24188;-72
2021/09/28 10:51:14;;;;;;;7.40;4.60;;;;;;;19.23;63.95;99230.17;237331;1196;24121;-73
2021/09/28 10:56:17;;;;;;;6.60;4.20;;;;;;;19.40;64.28;99227.95;237291;1190;22476;-73
2021/09/28 11:01:28;;;;;;;8.50;5.40;;;;;;;19.55;63.89;99223.73;237736;1197;24180;-72
2021/09/28 11:06:47;;;;;;;6.70;4.00;;;;;;;19.63;63.14;99215.99;238869;1197;22460;-73
2021/09/28 11:11:58;;;;;;;5.50;4.00;;;;;;;19.67;62.47;99213.17;237430;1190;25157;-74
2021/09/28 11:17:03;;;;;;;9.00;4.50;;;;;;;19.85;62.50;99219.52;236689;1197;24129;-74
2021/09/28 11:22:10;;;;;;;7.90;3.80;;;;;;;19.97;61.79;99217.41;237520;1196;22740;-74
2021/09/28 11:27:13;;;;;;;6.10;4.10;;;;;;;20.04;61.21;99217.79;237505;1183;24025;-74
2021/09/28 11:32:15;;;;;;;7.90;4.70;;;;;;;20.18;61.29;99214.07;236999;1190;25546;-72
2021/09/28 11:37:18;;;;;;;6.70;4.40;;;;;;;20.35;60.81;99203.95;237204;1174;24048;-73
2021/09/28 11:42:38;;;;;;;4.90;3.80;;;;;;;20.35;60.31;99203.86;237249;1191;24149;-71
2021/09/28 11:48:01;;;;;;;6.40;3.60;;;;;;;20.42;60.17;99201.91;237250;1190;22446;-74
2021/09/28 11:53:08;;;;;;;6.70;4.30;;;;;;;20.57;59.98;99200.52;236978;1197;24054;-72
2021/09/28 11:58:12;;;;;;;5.40;3.90;;;;;;;20.62;59.60;99195.23;237233;1190;23688;-73
2021/09/28 12:03:19;;;;;;;6.50;4.90;;;;;;;20.72;59.25;99197.95;236995;1197;24092;-72
2021/09/28 12:08:24;;;;;;;5.40;3.90;;;;;;;20.82;58.83;99195.51;236677;1190;25680;-72
2021/09/28 12:13:28;;;;;;;5.20;3.80;;;;;;;20.95;58.78;99192.20;237114;1192;22461;-74
2021/09/28 12:18:33;;;;;;;7.00;4.20;;;;;;;21.08;58.44;99193.89;237090;1197;24074;-73
2021/09/28 12:23:36;;;;;;;5.90;4.30;;;;;;;21.14;57.91;99198.68;236913;1183;22449;-73
2021/09/28 12:28:40;;;;;;;5.40;3.90;;;;;;;21.13;57.67;99206.38;237152;1183;22516;-72
2021/09/28 12:33:43;;;;;;;5.70;4.40;;;;;;;21.12;57.57;99203.16;236491;1192;22477;-74
2021/09/28 12:38:45;;;;;;;6.10;4.00;;;;;;;21.13;57.34;99195.79;236847;1197;24151;-74
2021/09/28 12:43:48;;;;;;;5.10;4.00;;;;;;;21.03;57.17;99189.47;236744;1196;22541;-73
2021/09/28 12:48:53;;;;;;;8.20;4.60;;;;;;;20.95;56.55;99188.77;236979;1196;24039;-73
2021/09/28 12:53:55;;;;;;;5.70;4.30;;;;;;;20.70;56.58;99190.44;237589;1190;22501;-73
2021/09/28 12:58:58;;;;;;;6.50;4.50;;;;;;;20.64;56.82;99198.48;236849;1190;24070;-71
2021/09/28 13:04:01;;;;;;;5.70;4.10;;;;;;;20.61;56.79;99203.63;236783;1197;25175;-73
2021/09/28 13:09:03;;;;;;;12.10;8.90;;;;;;;20.58;56.55;99206.73;236849;1190;24018;-74
2021/09/28 13:14:09;;;;;;;6.30;4.70;;;;;;;20.67;57.05;99208.99;237421;1190;22443;-72
2021/09/28 13:19:16;;;;;;;6.50;4.30;;;;;;;20.93;57.00;99208.12;236994;1190;22546;-73
2021/09/28 13:24:30;;;;;;;6.30;4.80;;;;;;;21.08;56.02;99203.45;236759;1196;24041;-72
2021/09/28 13:29:53;;;;;;;5.10;4.10;;;;;;;21.00;55.93;99206.20;236798;1197;24180;-73
2021/09/28 13:34:55;;;;;;;6.70;4.80;;;;;;;20.88;55.51;99210.31;237027;1191;22461;-73
2021/09/28 13:39:58;;;;;;;6.30;4.70;;;;;;;20.73;55.36;99215.64;237007;1197;22853;-73
2021/09/28 13:45:00;;;;;;;9.70;4.70;;;;;;;20.67;55.18;99214.22;236867;1196;24244;-72
2021/09/28 13:50:06;;;;;;;6.00;4.70;;;;;;;20.67;55.22;99214.54;236973;1197;22462;-73
2021/09/28 13:55:10;;;;;;;7.90;4.80;;;;;;;20.82;55.57;99214.72;237637;1197;22446;-71
2021/09/28 14:00:13;;;;;;;7.10;4.30;;;;;;;20.93;55.61;99212.86;237478;1190;22469;-71
2021/09/28 14:05:17;;;;;;;7.40;4.40;;;;;;;20.81;55.12;99218.52;237710;1197;22506;-72
2021/09/28 14:10:20;;;;;;;5.70;4.30;;;;;;;20.59;55.34;99219.73;236823;1190;25767;-71
2021/09/28 14:15:23;;;;;;;11.20;7.90;;;;;;;20.45;55.79;99220.33;236648;1196;22502;-73
2021/09/28 14:20:26;;;;;;;5.70;4.00;;;;;;;20.30;55.80;99214.90;237616;1196;24101;-72
2021/09/28 14:25:28;;;;;;;6.10;4.60;;;;;;;20.12;55.95;99214.77;236417;1176;25266;-73
2021/09/28 14:30:32;;;;;;;7.20;4.90;;;;;;;19.87;55.92;99218.02;236203;1197;24035;-72
2021/09/28 14:35:37;;;;;;;7.20;4.20;;;;;;;19.60;56.49;99210.15;236282;1174;22435;-74
2021/09/28 14:40:40;;;;;;;8.20;5.60;;;;;;;19.44;56.96;99224.66;236791;1196;26907;-73
2021/09/28 14:45:43;;;;;;;7.20;4.30;;;;;;;19.28;57.28;99221.09;236165;1197;26165;-73
2021/09/28 14:50:45;;;;;;;6.50;4.10;;;;;;;19.14;57.83;99219.63;236358;1197;22540;-73
2021/09/28 14:55:58;;;;;;;7.00;4.30;;;;;;;19.01;57.87;99226.90;236677;1196;23972;-72
2021/09/28 15:01:01;;;;;;;5.40;4.10;;;;;;;18.90;58.08;99225.83;236512;1197;23987;-71
2021/09/28 15:06:05;;;;;;;5.30;3.70;;;;;;;18.78;58.03;99229.80;236633;1197;22448;-74
2021/09/28 15:11:09;;;;;;;6.80;5.00;;;;;;;18.66;58.07;99228.87;236256;1193;22553;-74
2021/09/28 15:16:13;;;;;;;8.30;4.00;;;;;;;18.53;58.27;99226.31;236374;1197;22415;-73
2021/09/28 15:21:18;;;;;;;5.20;3.90;;;;;;;18.38;58.47;99225.67;236546;1197;22418;-71
2021/09/28 15:26:36;;;;;;;5.80;3.40;;;;;;;18.23;58.84;99234.80;236308;1197;24017;-73
2021/09/28 15:32:05;;;;;;;8.50;4.40;;;;;;;18.05;59.24;99241.91;235972;1190;22507;-73
2021/09/28 15:37:08;;;;;;;4.70;3.80;;;;;;;17.88;59.55;99243.73;236501;1190;22522;-71
2021/09/28 15:42:10;;;;;;;7.90;4.00;;;;;;;17.71;60.03;99241.14;236129;1198;24139;-71
2021/09/28 15:47:14;;;;;;;7.60;4.30;;;;;;;17.55;60.39;99246.70;236093;1198;25476;-71
2021/09/28 15:52:20;;;;;;;6.20;4.10;;;;;;;17.36;60.77;99250.40;236485;1197;22447;-71
2021/09/28 15:57:22;;;;;;;6.00;4.50;;;;;;;17.17;61.05;99253.21;236786;1196;25080;-72
2021/09/28 16:02:25;;;;;;;5.60;3.60;;;;;;;16.99;61.62;99251.41;236604;1190;24053;-72
2021/09/28 16:07:30;;;;;;;7.80;4.30;;;;;;;16.79;61.90;99255.63;236828;1196;22551;-73
2021/09/28 16:12:45;;;;;;;6.70;4.90;;;;;;;16.61;62.32;99260.44;236596;1197;22982;-73
2021/09/28 16:18:09;;;;;;;8.70;5.00;;;;;;;16.40;62.70;99265.88;236871;1195;22461;-71
2021/09/28 16:23:12;;;;;;;6.90;4.50;;;;;;;16.17;63.18;99269.23;236469;1190;24402;-71
2021/09/28 16:28:15;;;;;;;8.90;4.50;;;;;;;15.92;63.53;99275.20;236279;1197;24147;-72
2021/09/28 16:33:25;;;;;;;8.40;4.60;;;;;;;15.69;64.07;99279.77;236298;1176;25310;-71
2021/09/28 16:38:28;;;;;;;8.90;5.10;;;;;;;15.47;64.77;99280.86;236545;1196;22469;-73
2021/09/28 16:43:32;;;;;;;8.30;5.20;;;;;;;15.26;65.32;99284.34;236803;1196;24232;-73
2021/09/28 16:48:48;;;;;;;8.40;5.60;;;;;;;15.03;65.77;99290.71;236887;1196;22437;-72
2021/09/28 16:54:05;;;;;;;9.90;5.70;;;;;;;14.82;66.11;99291.00;236212;1196;25160;-71
2021/09/28 16:59:08;;;;;;;18.10;5.60;;;;;;;14.60;66.50;99293.89;237121;1196;25146;-73
2021/09/28 17:04:11;;;;;;;8.20;4.80;;;;;;;14.39;67.03;99294.59;236407;1190;24168;-75
2021/09/28 17:09:13;;;;;;;8.00;5.00;;;;;;;14.25;67.31;99296.48;236043;1198;22427;-73
2021/09/28 17:14:16;;;;;;;8.20;5.00;;;;;;;14.09;67.48;99307.01;236611;1196;24024;-71
2021/09/28 17:19:19;;;;;;;6.80;4.20;;;;;;;13.94;67.75;99308.70;236811;1196;22453;-73
2021/09/28 17:24:22;;;;;;;8.20;4.60;;;;;;;13.81;67.82;99310.02;236430;1198;24058;-73
2021/09/28 17:29:31;;;;;;;8.40;6.20;;;;;;;13.71;68.07;99309.27;236148;1191;22439;-71
2021/09/28 17:34:57;;;;;;;11.90;6.60;;;;;;;13.58;68.38;99308.95;236153;1196;24202;-71
2021/09/28 17:40:00;;;;;;;12.00;7.90;;;;;;;13.47;68.47;99305.59;236414;1197;22430;-71
2021/09/28 17:45:04;;;;;;;14.20;7.30;;;;;;;13.35;68.81;99305.43;236673;1197;23034;-70
2021/09/28 17:50:09;;;;;;;13.10;6.80;;;;;;;13.26;69.10;99310.34;236366;1197;22479;-73
2021/09/28 17:55:38;;;;;;;13.50;7.90;;;;;;;13.15;69.33;99313.69;236578;1196;23377;-71
2021/09/28 18:00:43;;;;;;;9.90;6.00;;;;;;;13.02;69.63;99311.66;236286;1197;22577;-71
2021/09/28 18:05:46;;;;;;;11.70;6.60;;;;;;;12.92;70.09;99309.00;236604;1196;22447;-73
2021/09/28 18:10:49;;;;;;;11.50;7.00;;;;;;;12.84;70.41;99304.88;236479;1190;24150;-73
2021/09/28 18:15:52;;;;;;;9.90;6.60;;;;;;;12.74;70.69;99310.96;236491;1196;24034;-72
2021/09/28 18:20:58;;;;;;;9.50;6.50;;;;;;;12.64;70.98;99308.90;236984;1196;22432;-73
2021/09/28 18:26:14;;;;;;;12.40;7.50;;;;;;;12.56;71.35;99313.14;236589;1196;24084;-71
2021/09/28 18:31:17;;;;;;;11.30;7.30;;;;;;;12.46;71.67;99320.45;236807;1194;23205;-74
2021/09/28 18:36:23;;;;;;;7.80;5.50;;;;;;;12.35;71.71;99320.00;236430;1197;24015;-72
2021/09/28 18:46:34;;;;;;;11.00;6.70;;;;;;;12.10;72.38;99321.77;236863;1194;22486;-71
2021/09/28 18:51:55;;;;;;;9.20;6.30;;;;;;;12.02;72.78;99320.89;236534;1197;24034;-73
2021/09/28 18:57:18;;;;;;;14.80;7.70;;;;;;;11.98;73.10;99322.01;236370;1191;24084;-73
2021/09/28 19:02:25;;;;;;;9.90;7.40;;;;;;;11.96;73.29;99318.96;236788;1190;25273;-73
2021/09/28 19:07:34;;;;;;;8.60;6.10;;;;;;;11.90;73.40;99323.88;236232;1193;25115;-71
2021/09/28 19:12:37;;;;;;;8.80;6.70;;;;;;;11.82;73.38;99324.60;236436;1197;25109;-71
2021/09/28 19:17:42;;;;;;;13.20;7.50;;;;;;;11.78;73.75;99324.91;236405;1197;25023;-73
2021/09/28 19:22:46;;;;;;;11.10;7.20;;;;;;;11.70;73.67;99319.55;236227;1190;25165;-72
2021/09/28 19:27:49;;;;;;;11.20;7.50;;;;;;;11.63;73.93;99324.66;236089;1194;24046;-71
2021/09/28 19:32:52;;;;;;;13.90;9.10;;;;;;;11.54;74.01;99330.05;236065;1197;25153;-72
2021/09/28 19:37:58;;;;;;;10.20;7.80;;;;;;;11.46;74.26;99330.27;236511;1197;24033;-70
2021/09/28 19:43:16;;;;;;;11.70;7.40;;;;;;;11.43;74.52;99329.64;236209;1184;24095;-71
2021/09/28 19:48:22;;;;;;;18.40;9.30;;;;;;;11.38;74.46;99335.48;236179;1197;25228;-72
2021/09/28 19:53:27;;;;;;;12.10;8.30;;;;;;;11.31;74.70;99329.95;236352;1190;24101;-71
2021/09/28 19:58:42;;;;;;;10.90;8.30;;;;;;;11.21;74.74;99326.11;236327;1193;22484;-73
2021/09/28 20:36:02;;;;;;;12.90;8.70;;;;;;;10.59;76.25;99330.46;236170;1197;25320;-71
2021/09/28 20:41:08;;;;;;;13.20;9.60;;;;;;;10.54;76.32;99330.27;236058;1197;25323;-73
2021/09/28 20:46:12;;;;;;;13.40;10.10;;;;;;;10.42;76.52;99325.92;236476;1198;22419;-73
2021/09/28 20:51:16;;;;;;;12.70;8.80;;;;;;;10.35;76.68;99328.45;236473;1197;22420;-72
2021/09/28 20:56:24;;;;;;;15.80;11.50;;;;;;;10.30;76.81;99327.55;236514;1190;22463;-71
2021/09/28 21:01:27;;;;;;;23.80;12.50;;;;;;;10.27;77.16;99324.83;236185;1196;22580;-72
2021/09/28 21:06:30;;;;;;;19.20;12.20;;;;;;;10.29;77.45;99324.27;235987;1193;22427;-73
2021/09/28 21:11:33;;;;;;;16.00;11.80;;;;;;;10.31;77.69;99317.30;235944;1198;24088;-71
2021/09/28 21:16:38;;;;;;;19.10;12.30;;;;;;;10.29;77.54;99316.66;235701;1197;24045;-73
2021/09/28 21:21:53;;;;;;;21.00;12.70;;;;;;;10.23;77.66;99310.11;235856;1184;24058;-71
2021/09/28 21:26:56;;;;;;;18.10;11.70;;;;;;;10.21;77.89;99301.12;236100;1190;24086;-71
2021/09/28 21:32:08;;;;;;;13.70;9.90;;;;;;;10.22;77.98;99299.34;236628;1190;22438;-72
2021/09/28 21:37:13;;;;;;;13.80;9.30;;;;;;;10.25;78.10;99298.80;236152;1190;22433;-73
2021/09/28 21:42:16;;;;;;;10.90;8.80;;;;;;;10.27;78.12;99294.73;236102;1198;24141;-71
2021/09/28 21:47:18;;;;;;;13.60;9.40;;;;;;;10.24;78.04;99295.32;236160;1198;24060;-71
2021/09/28 21:52:21;;;;;;;13.30;9.40;;;;;;;10.18;77.93;99295.17;236015;1198;22422;-73
2021/09/28 21:57:23;;;;;;;14.50;8.30;;;;;;;10.12;78.09;99295.25;235839;1193;22543;-71
2021/09/28 22:02:26;;;;;;;13.40;8.50;;;;;;;10.10;78.27;99295.57;236762;1196;22434;-73
2021/09/28 22:07:29;;;;;;;13.00;8.40;;;;;;;10.10;78.49;99293.44;236135;1196;22488;-72
2021/09/28 22:12:31;;;;;;;13.20;8.70;;;;;;;10.07;78.36;99292.05;236041;1197;22511;-72
2021/09/28 22:17:35;;;;;;;14.00;8.70;;;;;;;10.06;78.47;99284.45;235981;1191;24031;-73
2021/09/28 22:22:39;;;;;;;15.30;8.50;;;;;;;10.07;78.60;99278.45;236046;1197;22478;-71
2021/09/28 22:27:48;;;;;;;;;;;;;;;10.07;78.52;99273.64;235989;1191;24049;-70
2021/09/28 22:32:55;;;;;;;12.70;8.90;;;;;;;10.06;78.62;99275.04;236130;1197;25395;-72
2021/09/28 22:37:58;;;;;;;12.30;8.90;;;;;;;10.05;78.62;99276.05;235976;1194;24030;-71
2021/09/28 22:43:00;;;;;;;13.90;8.80;;;;;;;10.00;78.40;99281.78;236121;1198;22459;-73
2021/09/28 22:48:07;;;;;;;11.60;7.80;;;;;;;9.95;78.61;99284.05;236002;1174;22426;-73
2021/09/28 22:53:17;;;;;;;11.80;9.00;;;;;;;9.90;78.65;99283.27;236196;1197;25260;-73
2021/09/28 22:58:24;;;;;;;12.40;8.30;;;;;;;9.83;78.63;99281.13;236223;1193;24009;-71
2021/09/28 23:03:27;;;;;;;13.60;8.30;;;;;;;9.75;78.67;99280.50;236068;1192;24053;-71
2021/09/28 23:08:29;;;;;;;14.00;9.60;;;;;;;9.69;78.60;99277.78;236016;1190;22586;-71
2021/09/28 23:13:32;;;;;;;11.90;9.20;;;;;;;9.62;78.92;99284.05;236137;1182;24136;-71
2021/09/28 23:18:35;;;;;;;13.70;9.60;;;;;;;9.54;78.96;99289.63;236148;1198;24027;-73
2021/09/28 23:23:38;;;;;;;12.10;8.50;;;;;;;9.49;79.00;99281.54;236237;1193;26083;-71
2021/09/28 23:28:40;;;;;;;11.50;7.60;;;;;;;9.49;79.16;99272.95;236283;1190;24053;-71
2021/09/28 23:33:49;;;;;;;14.20;9.40;;;;;;;9.49;79.35;99267.76;236191;1190;24113;-70
2021/09/28 23:39:11;;;;;;;12.50;9.10;;;;;;;9.47;79.36;99258.98;236445;1192;24081;-73
2021/09/28 23:44:23;;;;;;;11.00;8.50;;;;;;;9.43;79.35;99251.55;236147;1190;24048;-73
2021/09/28 23:49:25;;;;;;;12.20;8.60;;;;;;;9.41;79.56;99242.35;235941;1190;24078;-73
2021/09/28 23:54:29;;;;;;;13.50;9.00;;;;;;;9.40;79.75;99238.61;236060;1196;24114;-72
2021/09/28 23:59:31;;;;;;;10.90;8.80;;;;;;;9.43;79.94;99233.10;236272;1184;24088;-71
